createdAt,value
2017-08-22T00:01:09.455Z,21.16
2017-08-22T00:02:19.400Z,21.1
2017-08-22T00:03:28.399Z,21.14
2017-08-22T00:04:38.621Z,21.1
2017-08-22T00:05:48.553Z,21.12
2017-08-22T00:06:58.471Z,21.21
2017-08-22T00:08:08.386Z,21.03
2017-08-22T00:09:18.299Z,20.99
2017-08-22T00:10:27.746Z,21.04
2017-08-22T00:11:37.657Z,21.03
2017-08-22T00:12:47.577Z,21.07
2017-08-22T00:13:57.211Z,21.04
2017-08-22T00:15:07.450Z,21.01
2017-08-22T00:16:17.161Z,21.01
2017-08-22T00:17:26.769Z,20.98
2017-08-22T00:18:36.370Z,20.97
2017-08-22T00:19:46.601Z,20.94
2017-08-22T00:20:56.829Z,20.92
2017-08-22T00:22:06.749Z,21.01
2017-08-22T00:23:16.394Z,20.91
2017-08-22T00:24:26.631Z,20.94
2017-08-22T00:25:36.571Z,20.92
2017-08-22T00:26:45.875Z,20.8
2017-08-22T00:27:55.936Z,20.84
2017-08-22T00:29:05.841Z,20.91
2017-08-22T00:30:15.452Z,20.82
2017-08-22T00:31:25.371Z,20.76
2017-08-22T00:32:35.287Z,20.69
2017-08-22T00:33:44.748Z,20.77
2017-08-22T00:34:54.662Z,20.74
2017-08-22T00:36:04.874Z,20.74
2017-08-22T00:37:14.499Z,20.72
2017-08-22T00:38:24.113Z,20.69
2017-08-22T00:39:34.349Z,20.7
2017-08-22T00:40:44.297Z,20.66
2017-08-22T00:41:54.530Z,20.82
2017-08-22T00:43:04.147Z,20.67
2017-08-22T00:44:14.401Z,20.69
2017-08-22T00:45:24.429Z,20.67
2017-08-22T00:46:33.731Z,20.7
2017-08-22T00:47:43.684Z,20.76
2017-08-22T00:48:53.301Z,20.64
2017-08-22T00:50:03.205Z,20.72
2017-08-22T00:51:12.872Z,20.67
2017-08-22T00:52:22.779Z,20.73
2017-08-22T00:53:32.709Z,20.67
2017-08-22T00:54:42.948Z,20.66
2017-08-22T00:55:53.178Z,20.67
2017-08-22T00:57:03.093Z,20.67
2017-08-22T00:58:13.023Z,20.67
2017-08-22T00:59:23.280Z,20.67
2017-08-22T01:00:33.206Z,20.7
2017-08-22T01:01:43.130Z,20.67
2017-08-22T01:02:53.215Z,20.69
2017-08-22T01:04:03.429Z,20.69
2017-08-22T01:05:12.727Z,20.69
2017-08-22T01:06:22.638Z,20.72
2017-08-22T01:07:32.551Z,20.7
2017-08-22T01:08:42.916Z,20.73
2017-08-22T01:09:52.830Z,20.66
2017-08-22T01:11:02.437Z,20.7
2017-08-22T01:12:12.344Z,20.72
2017-08-22T01:13:21.967Z,20.72
2017-08-22T01:14:32.518Z,20.66
2017-08-22T01:15:41.828Z,20.64
2017-08-22T01:16:51.752Z,20.61
2017-08-22T01:18:01.372Z,20.54
2017-08-22T01:19:11.312Z,20.64
2017-08-22T01:20:21.388Z,20.54
2017-08-22T01:21:31.309Z,20.59
2017-08-22T01:22:41.241Z,20.55
2017-08-22T01:23:51.162Z,20.57
2017-08-22T01:25:00.781Z,20.54
2017-08-22T01:26:10.804Z,20.58
2017-08-22T01:27:20.723Z,20.54
2017-08-22T01:28:30.341Z,20.52
2017-08-22T01:29:40.286Z,20.39
2017-08-22T01:30:50.198Z,20.48
2017-08-22T01:31:59.845Z,20.48
2017-08-22T01:33:09.761Z,20.47
2017-08-22T01:34:19.994Z,20.47
2017-08-22T01:35:30.233Z,20.5
2017-08-22T01:36:39.548Z,20.51
2017-08-22T01:37:49.936Z,20.42
2017-08-22T01:38:59.850Z,20.43
2017-08-22T01:40:10.067Z,20.48
2017-08-22T01:41:19.999Z,20.58
2017-08-22T01:42:29.626Z,20.57
2017-08-22T01:43:39.651Z,20.55
2017-08-22T01:44:49.878Z,20.57
2017-08-22T01:46:00.109Z,20.54
2017-08-22T01:47:10.023Z,20.58
2017-08-22T01:48:19.930Z,20.59
2017-08-22T01:49:29.985Z,20.62
2017-08-22T01:50:39.919Z,20.62
2017-08-22T01:51:50.135Z,20.62
2017-08-22T01:53:00.047Z,20.59
2017-08-22T01:54:09.964Z,20.57
2017-08-22T01:55:20.337Z,20.57
2017-08-22T01:56:30.584Z,20.58
2017-08-22T01:57:40.504Z,20.58
2017-08-22T01:58:50.751Z,20.54
2017-08-22T02:00:00.360Z,20.54
2017-08-22T02:01:10.276Z,20.41
2017-08-22T02:02:20.909Z,20.48
2017-08-22T02:03:31.123Z,20.43
2017-08-22T02:04:41.105Z,20.42
2017-08-22T02:05:51.011Z,20.39
2017-08-22T02:07:01.378Z,20.39
2017-08-22T02:08:11.001Z,20.36
2017-08-22T02:09:20.909Z,20.33
2017-08-22T02:10:30.807Z,20.35
2017-08-22T02:11:41.040Z,20.32
2017-08-22T02:12:50.714Z,20.28
2017-08-22T02:14:00.640Z,20.32
2017-08-22T02:15:10.260Z,20.2
2017-08-22T02:16:20.190Z,20.17
2017-08-22T02:17:30.399Z,20.21
2017-08-22T02:18:40.919Z,20.17
2017-08-22T02:19:50.843Z,20.18
2017-08-22T02:21:00.757Z,20.21
2017-08-22T02:22:10.380Z,20.06
2017-08-22T02:23:20.008Z,20.13
2017-08-22T02:24:29.936Z,20.23
2017-08-22T02:25:39.875Z,20.23
2017-08-22T02:26:49.481Z,20.18
2017-08-22T02:27:59.404Z,20.24
2017-08-22T02:29:09.028Z,20.14
2017-08-22T02:30:19.406Z,20.11
2017-08-22T02:31:29.042Z,20.11
2017-08-22T02:32:38.657Z,20.13
2017-08-22T02:33:48.270Z,20.16
2017-08-22T02:34:57.630Z,20.2
2017-08-22T02:36:07.707Z,20.14
2017-08-22T02:37:17.019Z,20.24
2017-08-22T02:38:26.950Z,20.32
2017-08-22T02:39:36.562Z,20.16
2017-08-22T02:40:46.480Z,20.18
2017-08-22T02:41:56.270Z,20.21
2017-08-22T02:43:06.204Z,20.16
2017-08-22T02:44:16.453Z,20.18
2017-08-22T02:45:26.374Z,20.21
2017-08-22T02:46:35.985Z,20.17
2017-08-22T02:47:46.324Z,20.18
2017-08-22T02:48:56.558Z,20.23
2017-08-22T02:50:06.506Z,20.16
2017-08-22T02:51:16.114Z,20.21
2017-08-22T02:52:26.351Z,20.17
2017-08-22T02:53:35.820Z,20.21
2017-08-22T02:54:45.484Z,20.2
2017-08-22T02:55:55.727Z,20.2
2017-08-22T02:57:05.659Z,20.06
2017-08-22T02:58:15.909Z,20.1
2017-08-22T02:59:26.148Z,20.11
2017-08-22T03:00:35.792Z,20.06
2017-08-22T03:01:45.400Z,20.1
2017-08-22T03:02:55.333Z,20.01
2017-08-22T03:04:05.248Z,20.02
2017-08-22T03:05:15.483Z,20.1
2017-08-22T03:06:25.113Z,20.03
2017-08-22T03:07:35.032Z,20.08
2017-08-22T03:08:45.260Z,20.08
2017-08-22T03:09:55.167Z,20.1
2017-08-22T03:11:05.398Z,20.06
2017-08-22T03:12:15.335Z,19.99
2017-08-22T03:13:24.959Z,20.06
2017-08-22T03:14:35.191Z,20.03
2017-08-22T03:15:45.126Z,20.01
2017-08-22T03:16:55.183Z,19.96
2017-08-22T03:18:04.808Z,19.98
2017-08-22T03:19:14.123Z,20.01
2017-08-22T03:20:24.061Z,19.95
2017-08-22T03:21:33.370Z,19.98
2017-08-22T03:22:43.143Z,19.92
2017-08-22T03:23:52.760Z,19.96
2017-08-22T03:25:02.985Z,19.99
2017-08-22T03:26:12.900Z,19.92
2017-08-22T03:27:22.829Z,19.92
2017-08-22T03:28:33.214Z,19.95
2017-08-22T03:29:43.440Z,19.88
2017-08-22T03:30:53.376Z,19.92
2017-08-22T03:32:02.995Z,19.88
2017-08-22T03:33:12.305Z,19.86
2017-08-22T03:34:22.263Z,19.88
2017-08-22T03:35:32.501Z,19.87
2017-08-22T03:36:42.432Z,19.86
2017-08-22T03:37:52.690Z,19.8
2017-08-22T03:39:02.954Z,19.83
2017-08-22T03:40:13.001Z,19.87
2017-08-22T03:41:22.933Z,19.87
2017-08-22T03:42:32.556Z,19.88
2017-08-22T03:43:42.804Z,19.86
2017-08-22T03:44:52.737Z,19.88
2017-08-22T03:46:03.142Z,19.95
2017-08-22T03:47:12.746Z,19.94
2017-08-22T03:48:22.373Z,19.96
2017-08-22T03:49:32.291Z,19.91
2017-08-22T03:50:42.227Z,19.99
2017-08-22T03:51:52.308Z,19.95
2017-08-22T03:53:02.524Z,20.03
2017-08-22T03:54:12.444Z,20.01
2017-08-22T03:55:22.365Z,19.98
2017-08-22T03:56:31.974Z,19.99
2017-08-22T03:57:41.931Z,19.98
2017-08-22T03:58:51.537Z,19.98
2017-08-22T04:00:01.768Z,19.98
2017-08-22T04:01:11.998Z,19.98
2017-08-22T04:02:21.646Z,19.99
2017-08-22T04:03:31.564Z,19.98
2017-08-22T04:04:41.194Z,19.99
2017-08-22T04:08:23.785Z,19.86
2017-08-22T04:09:33.817Z,19.92
2017-08-22T04:10:44.036Z,20.01
2017-08-22T04:11:54.251Z,19.98
2017-08-22T04:13:04.166Z,20.02
2017-08-22T04:14:14.432Z,20.01
2017-08-22T04:15:24.035Z,19.99
2017-08-22T04:16:33.636Z,20.02
2017-08-22T04:17:43.556Z,19.99
2017-08-22T04:18:53.158Z,19.88
2017-08-22T04:20:03.520Z,19.94
2017-08-22T04:21:13.425Z,19.88
2017-08-22T04:22:23.035Z,19.92
2017-08-22T04:23:32.962Z,19.84
2017-08-22T04:24:42.892Z,19.84
2017-08-22T04:25:52.876Z,19.96
2017-08-22T04:27:02.496Z,19.99
2017-08-22T04:28:12.422Z,19.99
2017-08-22T04:29:22.360Z,20.01
2017-08-22T04:30:32.293Z,20.01
2017-08-22T04:31:42.263Z,19.95
2017-08-22T04:32:51.874Z,19.96
2017-08-22T04:34:02.143Z,20.06
2017-08-22T04:35:11.767Z,19.98
2017-08-22T04:36:21.690Z,20.05
2017-08-22T04:37:32.111Z,20.01
2017-08-22T04:38:42.030Z,20.05
2017-08-22T04:39:51.939Z,20.06
2017-08-22T04:41:01.863Z,20.13
2017-08-22T04:42:11.492Z,20.13
2017-08-22T04:43:21.703Z,20.17
2017-08-22T04:44:31.610Z,20.21
2017-08-22T04:45:41.556Z,20.24
2017-08-22T04:46:51.484Z,20.26
2017-08-22T04:48:00.795Z,20.24
2017-08-22T04:49:11.196Z,20.23
2017-08-22T04:50:20.828Z,20.23
2017-08-22T04:51:31.056Z,20.28
2017-08-22T04:52:41.269Z,20.1
2017-08-22T04:53:51.503Z,20.23
2017-08-22T04:55:01.162Z,20.17
2017-08-22T04:56:10.764Z,20.21
2017-08-22T04:57:20.382Z,20.23
2017-08-22T04:58:30.313Z,20.2
2017-08-22T04:59:40.566Z,20.28
2017-08-22T05:00:51.105Z,20.39
2017-08-22T05:02:01.345Z,20.41
2017-08-22T05:03:10.650Z,20.39
2017-08-22T05:04:20.269Z,20.51
2017-08-22T05:05:29.269Z,20.59
2017-08-22T05:06:39.344Z,20.69
2017-08-22T05:07:49.266Z,20.67
2017-08-22T05:08:59.200Z,20.72
2017-08-22T05:10:08.505Z,20.84
2017-08-22T05:11:17.832Z,20.88
2017-08-22T05:12:27.776Z,20.84
2017-08-22T05:13:38.024Z,20.97
2017-08-22T05:14:47.939Z,20.97
2017-08-22T05:15:57.865Z,21.07
2017-08-22T05:17:07.509Z,21.03
2017-08-22T05:18:17.739Z,21.16
2017-08-22T05:19:27.647Z,21.21
2017-08-22T05:20:37.552Z,21.27
2017-08-22T05:21:47.484Z,21.35
2017-08-22T05:22:57.083Z,21.38
2017-08-22T05:24:06.702Z,21.37
2017-08-22T05:25:16.937Z,21.4
2017-08-22T05:26:26.543Z,21.47
2017-08-22T05:27:36.765Z,21.56
2017-08-22T05:28:46.684Z,21.52
2017-08-22T05:29:56.323Z,21.62
2017-08-22T05:31:06.247Z,21.67
2017-08-22T05:32:16.459Z,21.67
2017-08-22T05:33:25.764Z,21.71
2017-08-22T05:34:35.681Z,21.77
2017-08-22T05:35:45.602Z,21.75
2017-08-22T05:36:55.822Z,21.84
2017-08-22T05:38:06.067Z,21.92
2017-08-22T05:39:16.282Z,21.98
2017-08-22T05:40:25.897Z,21.99
2017-08-22T05:41:35.806Z,22
2017-08-22T05:42:45.158Z,21.99
2017-08-22T05:43:55.118Z,21.98
2017-08-22T05:45:05.045Z,22
2017-08-22T05:46:14.651Z,21.98
2017-08-22T05:47:24.570Z,22.02
2017-08-22T05:48:34.487Z,22.06
2017-08-22T05:49:44.712Z,22.12
2017-08-22T05:50:55.018Z,22.15
2017-08-22T05:52:05.712Z,22.25
2017-08-22T05:53:15.740Z,22.22
2017-08-22T05:54:25.663Z,22.21
2017-08-22T05:55:35.885Z,22.22
2017-08-22T05:56:45.500Z,22.15
2017-08-22T05:57:55.123Z,22.15
2017-08-22T05:59:04.745Z,22.17
2017-08-22T06:00:14.971Z,22.25
2017-08-22T06:01:24.580Z,22.28
2017-08-22T06:02:34.500Z,22.27
2017-08-22T06:03:44.738Z,22.31
2017-08-22T06:04:55.058Z,22.24
2017-08-22T06:06:05.294Z,22.24
2017-08-22T06:07:14.894Z,22.27
2017-08-22T06:08:24.817Z,22.3
2017-08-22T06:09:34.730Z,22.42
2017-08-22T06:10:44.371Z,22.33
2017-08-22T06:11:54.298Z,22.36
2017-08-22T06:13:04.203Z,22.45
2017-08-22T06:14:13.512Z,22.43
2017-08-22T06:15:23.434Z,22.46
2017-08-22T06:16:33.406Z,22.37
2017-08-22T06:17:43.043Z,22.39
2017-08-22T06:18:52.656Z,22.58
2017-08-22T06:20:02.574Z,22.46
2017-08-22T06:21:12.185Z,22.58
2017-08-22T06:22:21.960Z,22.57
2017-08-22T06:23:31.572Z,22.57
2017-08-22T06:24:40.892Z,22.58
2017-08-22T06:25:51.113Z,22.58
2017-08-22T06:27:01.019Z,22.6
2017-08-22T06:28:11.413Z,22.57
2017-08-22T06:29:21.020Z,22.65
2017-08-22T06:30:30.633Z,22.58
2017-08-22T06:31:40.269Z,22.73
2017-08-22T06:32:50.193Z,22.73
2017-08-22T06:34:00.267Z,22.75
2017-08-22T06:35:10.507Z,22.75
2017-08-22T06:36:20.740Z,22.79
2017-08-22T06:37:30.386Z,22.85
2017-08-22T06:38:40.312Z,22.85
2017-08-22T06:39:49.929Z,22.79
2017-08-22T06:40:59.854Z,22.77
2017-08-22T06:42:10.101Z,22.8
2017-08-22T06:43:20.330Z,22.77
2017-08-22T06:44:30.273Z,22.83
2017-08-22T06:45:40.345Z,22.95
2017-08-22T06:46:50.579Z,22.94
2017-08-22T06:48:00.220Z,22.85
2017-08-22T06:49:10.483Z,22.95
2017-08-22T06:50:20.417Z,22.9
2017-08-22T06:51:30.806Z,22.92
2017-08-22T06:52:40.470Z,22.92
2017-08-22T06:53:50.401Z,22.97
2017-08-22T06:55:00.614Z,22.98
2017-08-22T06:56:10.541Z,23.05
2017-08-22T06:57:20.648Z,23.01
2017-08-22T06:58:30.596Z,23.01
2017-08-22T06:59:40.847Z,23.04
2017-08-22T07:00:50.470Z,23.1
2017-08-22T07:02:00.080Z,23.01
2017-08-22T07:03:09.986Z,23.07
2017-08-22T07:04:20.222Z,23.07
2017-08-22T07:05:30.143Z,23.13
2017-08-22T07:06:40.377Z,23.13
2017-08-22T07:07:49.389Z,23.15
2017-08-22T07:08:59.324Z,23.15
2017-08-22T07:10:09.229Z,23.15
2017-08-22T07:11:19.459Z,23.17
2017-08-22T07:12:29.686Z,23.13
2017-08-22T07:13:39.921Z,23.17
2017-08-22T07:14:49.841Z,23.16
2017-08-22T07:15:59.765Z,23.25
2017-08-22T07:17:09.382Z,23.27
2017-08-22T07:18:19.328Z,23.27
2017-08-22T07:19:28.643Z,23.31
2017-08-22T07:20:38.558Z,23.15
2017-08-22T07:21:49.026Z,23.15
2017-08-22T07:22:59.269Z,23.27
2017-08-22T07:24:08.891Z,23.31
2017-08-22T07:25:18.496Z,23.28
2017-08-22T07:26:28.728Z,23.25
2017-08-22T07:27:39.005Z,23.22
2017-08-22T07:28:48.916Z,23.33
2017-08-22T07:29:58.835Z,23.32
2017-08-22T07:31:08.452Z,23.38
2017-08-22T07:32:17.813Z,23.33
2017-08-22T07:33:27.733Z,23.38
2017-08-22T07:34:37.659Z,23.36
2017-08-22T07:35:47.587Z,23.33
2017-08-22T07:36:57.804Z,23.4
2017-08-22T07:38:08.131Z,23.54
2017-08-22T07:39:17.761Z,23.78
2017-08-22T07:40:27.685Z,24.3
2017-08-22T07:41:37.295Z,24.64
2017-08-22T07:42:47.241Z,25.03
2017-08-22T07:43:57.573Z,25.42
2017-08-22T07:45:07.885Z,25.72
2017-08-22T07:46:17.805Z,26.05
2017-08-22T07:47:27.420Z,26.29
2017-08-22T07:48:37.029Z,26.52
2017-08-22T07:49:47.117Z,26.77
2017-08-22T07:50:57.368Z,26.91
2017-08-22T07:52:06.985Z,27.22
2017-08-22T07:53:16.595Z,27.25
2017-08-22T07:54:25.612Z,27.4
2017-08-22T07:55:35.848Z,27.54
2017-08-22T07:56:46.081Z,27.7
2017-08-22T07:57:56.312Z,27.87
2017-08-22T07:59:05.924Z,27.87
2017-08-22T08:00:15.854Z,27.94
2017-08-22T08:01:25.783Z,28.03
2017-08-22T08:02:35.406Z,28.18
2017-08-22T08:03:45.339Z,28.12
2017-08-22T08:04:55.589Z,28.21
2017-08-22T08:06:05.498Z,28.15
2017-08-22T08:07:15.419Z,28.06
2017-08-22T08:08:25.641Z,27.99
2017-08-22T08:09:35.880Z,27.75
2017-08-22T08:10:45.808Z,27.47
2017-08-22T08:11:55.431Z,27.31
2017-08-22T08:13:05.655Z,27.09
2017-08-22T08:14:14.971Z,26.8
2017-08-22T08:15:24.900Z,26.67
2017-08-22T08:16:34.829Z,26.45
2017-08-22T08:17:45.064Z,26.25
2017-08-22T08:18:54.981Z,26.12
2017-08-22T08:20:04.925Z,26.06
2017-08-22T08:21:14.908Z,25.91
2017-08-22T08:22:24.582Z,25.72
2017-08-22T08:23:34.505Z,25.61
2017-08-22T08:24:44.264Z,25.64
2017-08-22T08:25:53.878Z,25.43
2017-08-22T08:27:03.490Z,25.35
2017-08-22T08:28:12.807Z,25.32
2017-08-22T08:29:23.030Z,25.24
2017-08-22T08:30:32.978Z,25.23
2017-08-22T08:31:42.625Z,25.13
2017-08-22T08:32:52.231Z,25.08
2017-08-22T08:34:02.144Z,24.95
2017-08-22T08:35:12.055Z,24.91
2017-08-22T08:36:21.983Z,24.83
2017-08-22T08:37:32.233Z,24.83
2017-08-22T08:38:42.173Z,24.81
2017-08-22T08:39:52.392Z,24.78
2017-08-22T08:41:02.315Z,24.76
2017-08-22T08:42:12.064Z,24.69
2017-08-22T08:43:21.692Z,24.62
2017-08-22T08:44:31.323Z,24.53
2017-08-22T08:45:41.565Z,24.6
2017-08-22T08:46:51.486Z,24.47
2017-08-22T08:48:01.575Z,24.52
2017-08-22T08:49:11.789Z,24.47
2017-08-22T08:50:21.739Z,24.42
2017-08-22T08:51:31.991Z,24.4
2017-08-22T08:52:41.305Z,24.34
2017-08-22T08:53:51.062Z,24.43
2017-08-22T08:55:01.292Z,24.39
2017-08-22T08:56:11.212Z,24.32
2017-08-22T08:57:20.831Z,24.31
2017-08-22T08:58:30.762Z,24.27
2017-08-22T08:59:40.729Z,24.31
2017-08-22T09:00:50.960Z,24.15
2017-08-22T09:02:00.258Z,24.09
2017-08-22T09:03:10.484Z,24.21
2017-08-22T09:04:20.097Z,24.24
2017-08-22T09:05:30.442Z,24.21
2017-08-22T09:06:40.086Z,24.16
2017-08-22T09:07:50.318Z,24.1
2017-08-22T09:09:00.265Z,24.08
2017-08-22T09:10:10.509Z,24.1
2017-08-22T09:11:20.757Z,24.13
2017-08-22T09:12:30.991Z,24.05
2017-08-22T09:13:40.611Z,24.06
2017-08-22T09:14:49.929Z,24.06
2017-08-22T09:15:59.590Z,24.09
2017-08-22T09:17:09.597Z,23.94
2017-08-22T09:18:19.205Z,24.08
2017-08-22T09:19:29.122Z,23.93
2017-08-22T09:20:39.064Z,24.06
2017-08-22T09:21:49.386Z,23.93
2017-08-22T09:22:59.607Z,24
2017-08-22T09:24:09.835Z,23.91
2017-08-22T09:25:19.484Z,23.93
2017-08-22T09:26:29.717Z,23.94
2017-08-22T09:27:39.645Z,23.95
2017-08-22T09:28:49.616Z,23.93
2017-08-22T09:29:59.545Z,23.87
2017-08-22T09:31:09.472Z,23.98
2017-08-22T09:32:19.074Z,23.9
2017-08-22T09:33:28.683Z,23.88
2017-08-22T09:34:38.773Z,23.91
2017-08-22T09:35:49.001Z,23.88
2017-08-22T09:36:58.915Z,23.87
2017-08-22T09:38:08.831Z,23.84
2017-08-22T09:39:18.457Z,23.91
2017-08-22T09:40:29.046Z,23.87
2017-08-22T09:41:39.020Z,23.9
2017-08-22T09:42:49.268Z,23.85
2017-08-22T09:43:58.893Z,23.83
2017-08-22T09:45:08.800Z,23.84
2017-08-22T09:46:18.783Z,23.83
2017-08-22T09:47:28.739Z,23.84
2017-08-22T09:48:38.985Z,23.87
2017-08-22T09:49:48.916Z,23.79
2017-08-22T09:50:59.154Z,23.85
2017-08-22T09:52:08.626Z,23.73
2017-08-22T09:53:18.542Z,23.8
2017-08-22T09:54:27.921Z,23.7
2017-08-22T09:55:38.139Z,23.85
2017-08-22T09:56:48.065Z,23.79
2017-08-22T09:57:58.685Z,23.79
2017-08-22T09:59:08.307Z,23.75
2017-08-22T10:00:18.532Z,23.85
2017-08-22T10:01:28.449Z,23.75
2017-08-22T10:02:38.378Z,23.84
2017-08-22T10:03:48.390Z,23.79
2017-08-22T10:04:58.036Z,23.79
2017-08-22T10:06:08.265Z,23.83
2017-08-22T10:07:18.209Z,23.72
2017-08-22T10:08:27.518Z,23.72
2017-08-22T10:09:37.158Z,23.75
2017-08-22T10:10:47.090Z,23.76
2017-08-22T10:11:57.050Z,23.73
2017-08-22T10:13:06.688Z,23.68
2017-08-22T10:14:16.607Z,23.75
2017-08-22T10:15:26.396Z,23.73
2017-08-22T10:16:36.660Z,23.66
2017-08-22T10:17:46.591Z,23.63
2017-08-22T10:18:56.206Z,23.75
2017-08-22T10:20:06.443Z,23.75
2017-08-22T10:21:16.872Z,23.69
2017-08-22T10:22:26.807Z,23.76
2017-08-22T10:23:36.439Z,23.72
2017-08-22T10:24:46.110Z,23.69
2017-08-22T10:25:55.715Z,23.65
2017-08-22T10:27:06.106Z,23.7
2017-08-22T10:28:15.707Z,23.76
2017-08-22T10:29:25.330Z,23.63
2017-08-22T10:30:35.277Z,23.7
2017-08-22T10:31:45.194Z,23.73
2017-08-22T10:32:54.860Z,23.76
2017-08-22T10:34:04.797Z,23.68
2017-08-22T10:35:15.041Z,23.75
2017-08-22T10:36:24.961Z,23.72
2017-08-22T10:37:34.914Z,23.73
2017-08-22T10:38:44.946Z,23.72
2017-08-22T10:39:54.591Z,23.66
2017-08-22T10:41:04.829Z,23.7
2017-08-22T10:42:14.752Z,23.63
2017-08-22T10:43:24.355Z,23.63
2017-08-22T10:44:34.585Z,23.66
2017-08-22T10:45:44.517Z,23.7
2017-08-22T10:46:54.160Z,23.76
2017-08-22T10:48:04.105Z,23.61
2017-08-22T10:49:14.341Z,23.68
2017-08-22T10:50:24.587Z,23.66
2017-08-22T10:51:34.241Z,23.7
2017-08-22T10:52:44.481Z,23.72
2017-08-22T10:53:54.111Z,23.65
2017-08-22T10:55:04.035Z,23.68
2017-08-22T10:56:14.407Z,23.75
2017-08-22T10:57:24.339Z,23.68
2017-08-22T10:58:33.953Z,23.79
2017-08-22T10:59:43.882Z,23.76
2017-08-22T11:00:53.200Z,23.79
2017-08-22T11:02:03.429Z,23.78
2017-08-22T11:03:13.677Z,23.78
2017-08-22T11:04:23.924Z,23.72
2017-08-22T11:05:34.141Z,23.76
2017-08-22T11:06:44.366Z,23.69
2017-08-22T11:07:54.610Z,23.68
2017-08-22T11:09:04.534Z,23.68
2017-08-22T11:10:13.849Z,23.69
2017-08-22T11:11:23.499Z,23.68
2017-08-22T11:12:33.723Z,23.69
2017-08-22T11:13:43.735Z,23.78
2017-08-22T11:14:53.964Z,23.83
2017-08-22T11:16:03.901Z,23.83
2017-08-22T11:17:13.851Z,23.83
2017-08-22T11:18:23.781Z,23.87
2017-08-22T11:19:33.791Z,23.8
2017-08-22T11:20:44.021Z,23.75
2017-08-22T11:21:54.262Z,23.84
2017-08-22T11:23:04.176Z,23.72
2017-08-22T11:24:14.115Z,23.69
2017-08-22T11:25:24.137Z,23.78
2017-08-22T11:26:34.052Z,23.79
2017-08-22T11:27:43.805Z,23.75
2017-08-22T11:28:54.105Z,23.8
2017-08-22T11:30:04.083Z,23.76
2017-08-22T11:31:14.194Z,23.84
2017-08-22T11:32:24.415Z,23.83
2017-08-22T11:33:34.358Z,23.8
2017-08-22T11:34:44.294Z,23.8
2017-08-22T11:35:54.548Z,23.79
2017-08-22T11:37:04.517Z,23.78
2017-08-22T11:38:14.743Z,23.83
2017-08-22T11:39:24.690Z,23.79
2017-08-22T11:40:34.299Z,23.83
2017-08-22T11:41:44.226Z,23.87
2017-08-22T11:42:53.549Z,23.95
2017-08-22T11:44:03.181Z,23.88
2017-08-22T11:45:12.788Z,23.87
2017-08-22T11:46:23.018Z,23.85
2017-08-22T11:47:33.001Z,23.98
2017-08-22T11:48:42.413Z,23.88
2017-08-22T11:49:52.348Z,23.85
2017-08-22T11:51:02.570Z,23.9
2017-08-22T11:52:12.189Z,23.84
2017-08-22T11:53:21.839Z,23.83
2017-08-22T11:54:31.937Z,23.98
2017-08-22T11:55:41.876Z,23.9
2017-08-22T11:56:51.214Z,23.87
2017-08-22T11:58:01.468Z,23.8
2017-08-22T11:59:12.064Z,23.84
2017-08-22T12:00:22.396Z,23.9
2017-08-22T12:01:32.038Z,23.87
2017-08-22T12:02:41.964Z,23.91
2017-08-22T12:03:51.604Z,23.93
2017-08-22T12:05:01.529Z,23.84
2017-08-22T12:06:11.918Z,23.91
2017-08-22T12:07:22.138Z,23.88
2017-08-22T12:08:32.368Z,23.85
2017-08-22T12:09:41.976Z,23.95
2017-08-22T12:10:51.292Z,23.94
2017-08-22T12:12:01.264Z,23.8
2017-08-22T12:13:11.537Z,23.84
2017-08-22T12:14:21.166Z,23.85
2017-08-22T12:15:31.109Z,23.91
2017-08-22T12:16:41.441Z,23.88
2017-08-22T12:17:51.857Z,23.93
2017-08-22T12:19:01.501Z,23.98
2017-08-22T12:20:11.103Z,23.87
2017-08-22T12:21:20.747Z,23.85
2017-08-22T12:22:30.364Z,23.95
2017-08-22T12:23:40.951Z,23.85
2017-08-22T12:24:50.876Z,23.88
2017-08-22T12:26:00.810Z,23.9
2017-08-22T12:27:10.138Z,23.91
2017-08-22T12:28:19.770Z,23.84
2017-08-22T12:29:29.533Z,23.88
2017-08-22T12:30:39.759Z,23.9
2017-08-22T12:31:49.375Z,23.88
2017-08-22T12:32:59.593Z,23.83
2017-08-22T12:34:09.208Z,23.8
2017-08-22T12:35:19.188Z,23.84
2017-08-22T12:36:29.434Z,23.94
2017-08-22T12:37:38.752Z,23.9
2017-08-22T12:38:48.066Z,23.85
2017-08-22T12:39:58.289Z,23.9
2017-08-22T12:41:08.379Z,23.84
2017-08-22T12:42:18.290Z,23.97
2017-08-22T12:43:27.903Z,23.9
2017-08-22T12:44:37.538Z,23.9
2017-08-22T12:45:47.160Z,23.87
2017-08-22T12:46:57.402Z,23.91
2017-08-22T12:48:07.309Z,23.94
2017-08-22T12:49:17.248Z,23.85
2017-08-22T12:50:27.190Z,23.83
2017-08-22T12:51:37.106Z,23.98
2017-08-22T12:52:47.122Z,23.83
2017-08-22T12:53:57.041Z,23.84
2017-08-22T12:55:06.961Z,23.85
2017-08-22T12:56:16.569Z,23.9
2017-08-22T12:57:26.482Z,23.9
2017-08-22T12:58:36.262Z,23.9
2017-08-22T12:59:46.274Z,23.9
2017-08-22T13:00:55.913Z,23.9
2017-08-22T13:02:05.851Z,23.87
2017-08-22T13:03:15.810Z,23.85
2017-08-22T13:04:26.204Z,23.83
2017-08-22T13:05:35.824Z,23.83
2017-08-22T13:06:46.060Z,23.79
2017-08-22T13:07:55.684Z,23.79
2017-08-22T13:09:05.321Z,23.8
2017-08-22T13:10:14.727Z,23.8
2017-08-22T13:11:24.345Z,23.85
2017-08-22T13:12:34.008Z,23.76
2017-08-22T13:13:44.250Z,23.75
2017-08-22T13:14:53.864Z,23.83
2017-08-22T13:16:03.845Z,23.83
2017-08-22T13:17:14.058Z,23.8
2017-08-22T13:18:23.673Z,23.79
2017-08-22T13:19:33.595Z,23.87
2017-08-22T13:20:43.822Z,23.84
2017-08-22T13:21:54.210Z,23.83
2017-08-22T13:23:03.825Z,23.83
2017-08-22T13:24:14.053Z,23.76
2017-08-22T13:25:23.683Z,23.8
2017-08-22T13:26:33.929Z,23.8
2017-08-22T13:27:43.664Z,23.72
2017-08-22T13:28:53.949Z,23.84
2017-08-22T13:30:04.218Z,23.78
2017-08-22T13:31:13.553Z,23.83
2017-08-22T13:32:23.173Z,23.83
2017-08-22T13:33:33.104Z,23.79
2017-08-22T13:34:43.052Z,23.8
2017-08-22T13:35:52.702Z,23.85
2017-08-22T13:37:02.319Z,23.83
2017-08-22T13:38:12.247Z,23.79
2017-08-22T13:39:22.486Z,23.8
2017-08-22T13:40:32.709Z,23.79
2017-08-22T13:41:42.365Z,23.76
2017-08-22T13:42:51.993Z,23.87
2017-08-22T13:44:01.936Z,23.78
2017-08-22T13:45:12.007Z,23.79
2017-08-22T13:46:21.936Z,23.79
2017-08-22T13:47:32.189Z,23.7
2017-08-22T13:48:41.815Z,23.87
2017-08-22T13:49:51.444Z,23.78
2017-08-22T13:51:01.722Z,23.76
2017-08-22T13:52:11.326Z,23.79
2017-08-22T13:53:20.653Z,23.76
2017-08-22T13:54:30.618Z,23.87
2017-08-22T13:55:40.856Z,23.76
2017-08-22T13:56:50.547Z,23.79
2017-08-22T13:58:00.493Z,23.79
2017-08-22T13:59:09.828Z,23.79
2017-08-22T14:00:18.820Z,23.78
2017-08-22T14:01:28.743Z,23.9
2017-08-22T14:02:38.705Z,23.87
2017-08-22T14:03:48.650Z,23.78
2017-08-22T14:04:58.883Z,23.8
2017-08-22T14:06:08.865Z,23.85
2017-08-22T14:07:18.786Z,23.85
2017-08-22T14:08:29.177Z,23.87
2017-08-22T14:09:39.431Z,23.95
2017-08-22T14:10:49.036Z,23.87
2017-08-22T14:11:59.336Z,23.79
2017-08-22T14:13:09.388Z,23.85
2017-08-22T14:14:19.481Z,23.88
2017-08-22T14:15:29.096Z,23.88
2017-08-22T14:16:39.015Z,23.8
2017-08-22T14:17:48.665Z,23.88
2017-08-22T14:18:58.939Z,23.93
2017-08-22T14:20:09.282Z,23.91
2017-08-22T14:21:19.205Z,23.83
2017-08-22T14:22:29.456Z,23.9
2017-08-22T14:23:39.387Z,23.84
2017-08-22T14:24:49.019Z,23.83
2017-08-22T14:25:58.959Z,23.83
2017-08-22T14:27:09.186Z,23.84
2017-08-22T14:28:19.403Z,23.9
2017-08-22T14:29:28.720Z,23.97
2017-08-22T14:30:38.341Z,23.9
2017-08-22T14:31:48.077Z,23.91
2017-08-22T14:32:58.023Z,23.9
2017-08-22T14:34:08.263Z,23.84
2017-08-22T14:35:18.194Z,23.9
2017-08-22T14:36:28.117Z,23.91
2017-08-22T14:37:38.523Z,23.85
2017-08-22T14:38:48.146Z,23.85
2017-08-22T14:39:57.759Z,23.87
2017-08-22T14:41:07.056Z,23.95
2017-08-22T14:42:16.989Z,23.93
2017-08-22T14:43:27.224Z,23.95
2017-08-22T14:44:36.925Z,23.83
2017-08-22T14:45:47.162Z,23.84
2017-08-22T14:46:57.129Z,23.95
2017-08-22T14:48:07.057Z,23.88
2017-08-22T14:49:17.449Z,23.88
2017-08-22T14:50:27.111Z,23.87
2017-08-22T14:51:37.346Z,23.93
2017-08-22T14:52:47.286Z,23.95
2017-08-22T14:53:56.899Z,23.85
2017-08-22T14:55:07.186Z,23.85
2017-08-22T14:56:17.138Z,23.97
2017-08-22T14:57:27.412Z,23.85
2017-08-22T14:58:37.659Z,23.88
2017-08-22T14:59:47.617Z,23.87
2017-08-22T15:00:57.713Z,23.88
2017-08-22T15:02:07.335Z,23.91
2017-08-22T15:03:17.259Z,23.95
2017-08-22T15:04:26.880Z,23.93
2017-08-22T15:05:37.108Z,23.88
2017-08-22T15:06:47.117Z,23.91